sensor_id;sensor_type;location;lat;lon;timestamp;pressure;altitude;pressure_sealevel;temperature;humidity
28344;BME280;15597;50.914;6.638;2023-05-03T00:01:24;101994.06;;;12.64;42.99
28344;BME280;15597;50.914;6.638;2023-05-03T00:03:52;101995.84;;;12.59;42.81
28344;BME280;15597;50.914;6.638;2023-05-03T00:06:18;101988.88;;;12.55;42.86
28344;BME280;15597;50.914;6.638;2023-05-03T00:08:44;101987.16;;;12.51;42.85
28344;BME280;15597;50.914;6.638;2023-05-03T00:11:09;101985.41;;;12.50;43.06
28344;BME280;15597;50.914;6.638;2023-05-03T00:13:36;101989.81;;;12.46;43.07
28344;BME280;15597;50.914;6.638;2023-05-03T00:16:01;101990.72;;;12.42;43.21
28344;BME280;15597;50.914;6.638;2023-05-03T00:18:27;101984.63;;;12.37;42.98
28344;BME280;15597;50.914;6.638;2023-05-03T00:20:53;101979.41;;;12.34;43.22
28344;BME280;15597;50.914;6.638;2023-05-03T00:23:19;101990.81;;;12.30;43.26
28344;BME280;15597;50.914;6.638;2023-05-03T00:25:45;101982.94;;;12.25;43.36
28344;BME280;15597;50.914;6.638;2023-05-03T00:28:11;101986.47;;;12.22;43.36
28344;BME280;15597;50.914;6.638;2023-05-03T00:30:37;101988.22;;;12.22;43.88
28344;BME280;15597;50.914;6.638;2023-05-03T00:33:02;101989.97;;;12.18;43.77
28344;BME280;15597;50.914;6.638;2023-05-03T00:35:28;101997.00;;;12.18;43.82
28344;BME280;15597;50.914;6.638;2023-05-03T00:37:54;101996.97;;;12.16;43.50
28344;BME280;15597;50.914;6.638;2023-05-03T00:40:20;102003.13;;;12.17;43.52
28344;BME280;15597;50.914;6.638;2023-05-03T00:42:45;102000.47;;;12.20;42.92
28344;BME280;15597;50.914;6.638;2023-05-03T00:45:11;101992.59;;;12.24;43.72
28344;BME280;15597;50.914;6.638;2023-05-03T00:47:37;101988.19;;;12.28;43.67
28344;BME280;15597;50.914;6.638;2023-05-03T00:50:03;101995.16;;;12.32;43.61
28344;BME280;15597;50.914;6.638;2023-05-03T00:52:29;101985.53;;;12.33;43.71
28344;BME280;15597;50.914;6.638;2023-05-03T00:54:56;101988.16;;;12.33;43.88
28344;BME280;15597;50.914;6.638;2023-05-03T00:57:23;101979.44;;;12.31;43.45
28344;BME280;15597;50.914;6.638;2023-05-03T00:59:51;101981.19;;;12.29;43.62
28344;BME280;15597;50.914;6.638;2023-05-03T01:02:17;101985.56;;;12.25;43.53
28344;BME280;15597;50.914;6.638;2023-05-03T01:04:43;101969.84;;;12.22;43.46
28344;BME280;15597;50.914;6.638;2023-05-03T01:07:37;101973.41;;;12.15;43.51
28344;BME280;15597;50.914;6.638;2023-05-03T01:10:37;101967.31;;;12.06;43.61
28344;BME280;15597;50.914;6.638;2023-05-03T01:13:13;101982.22;;;12.01;43.64
28344;BME280;15597;50.914;6.638;2023-05-03T01:15:44;101975.22;;;11.97;43.62
28344;BME280;15597;50.914;6.638;2023-05-03T01:18:18;101977.00;;;11.89;43.65
28344;BME280;15597;50.914;6.638;2023-05-03T01:20:48;101975.28;;;11.84;43.84
28344;BME280;15597;50.914;6.638;2023-05-03T01:25:46;101975.31;;;11.75;44.18
28344;BME280;15597;50.914;6.638;2023-05-03T01:28:11;101973.59;;;11.71;43.76
28344;BME280;15597;50.914;6.638;2023-05-03T01:30:38;101978.81;;;11.71;43.92
28344;BME280;15597;50.914;6.638;2023-05-03T01:33:30;101974.47;;;11.65;44.22
28344;BME280;15597;50.914;6.638;2023-05-03T01:36:10;101977.09;;;11.54;44.04
28344;BME280;15597;50.914;6.638;2023-05-03T01:38:37;101981.50;;;11.49;44.35
28344;BME280;15597;50.914;6.638;2023-05-03T01:41:09;101978.88;;;11.43;44.25
28344;BME280;15597;50.914;6.638;2023-05-03T01:43:37;101973.66;;;11.40;44.60
28344;BME280;15597;50.914;6.638;2023-05-03T01:46:03;101978.91;;;11.37;44.65
28344;BME280;15597;50.914;6.638;2023-05-03T01:48:28;101981.53;;;11.31;44.63
28344;BME280;15597;50.914;6.638;2023-05-03T01:50:55;101982.44;;;11.27;44.46
28344;BME280;15597;50.914;6.638;2023-05-03T01:53:23;101979.84;;;11.22;44.86
28344;BME280;15597;50.914;6.638;2023-05-03T01:55:48;101984.19;;;11.18;44.43
28344;BME280;15597;50.914;6.638;2023-05-03T01:58:14;101985.06;;;11.13;44.33
28344;BME280;15597;50.914;6.638;2023-05-03T02:00:40;101998.19;;;11.08;44.86
28344;BME280;15597;50.914;6.638;2023-05-03T02:03:06;101990.31;;;11.03;44.80
28344;BME280;15597;50.914;6.638;2023-05-03T02:05:32;102001.69;;;11.01;44.95
28344;BME280;15597;50.914;6.638;2023-05-03T02:07:59;101998.19;;;10.94;44.74
28344;BME280;15597;50.914;6.638;2023-05-03T02:10:25;102001.66;;;10.93;44.66
28344;BME280;15597;50.914;6.638;2023-05-03T02:12:54;101988.56;;;10.90;45.35
28344;BME280;15597;50.914;6.638;2023-05-03T02:15:19;101998.19;;;10.89;44.79
28344;BME280;15597;50.914;6.638;2023-05-03T02:17:45;102001.69;;;10.88;44.74
28344;BME280;15597;50.914;6.638;2023-05-03T02:20:11;101998.19;;;10.86;45.07
28344;BME280;15597;50.914;6.638;2023-05-03T02:22:37;102006.03;;;10.85;44.96
28344;BME280;15597;50.914;6.638;2023-05-03T02:25:03;102011.28;;;10.83;45.65
28344;BME280;15597;50.914;6.638;2023-05-03T02:27:29;102017.41;;;10.79;45.16
28344;BME280;15597;50.914;6.638;2023-05-03T02:29:55;102015.63;;;10.76;45.09
28344;BME280;15597;50.914;6.638;2023-05-03T02:32:21;102021.75;;;10.72;45.04
28344;BME280;15597;50.914;6.638;2023-05-03T02:34:47;102020.88;;;10.69;45.62
28344;BME280;15597;50.914;6.638;2023-05-03T02:37:17;102033.97;;;10.65;45.46
28344;BME280;15597;50.914;6.638;2023-05-03T02:39:43;102030.44;;;10.62;45.44
28344;BME280;15597;50.914;6.638;2023-05-03T02:42:11;102022.63;;;10.60;45.65
28344;BME280;15597;50.914;6.638;2023-05-03T02:44:36;102024.34;;;10.60;45.54
28344;BME280;15597;50.914;6.638;2023-05-03T02:47:02;102021.72;;;10.58;45.65
28344;BME280;15597;50.914;6.638;2023-05-03T02:49:29;102019.97;;;10.54;45.54
28344;BME280;15597;50.914;6.638;2023-05-03T02:51:54;102019.09;;;10.52;45.58
28344;BME280;15597;50.914;6.638;2023-05-03T02:54:21;102016.47;;;10.50;45.64
28344;BME280;15597;50.914;6.638;2023-05-03T02:56:47;102017.34;;;10.48;45.42
28344;BME280;15597;50.914;6.638;2023-05-03T02:59:13;102013.84;;;10.46;45.90
28344;BME280;15597;50.914;6.638;2023-05-03T03:01:39;102009.50;;;10.43;45.72
28344;BME280;15597;50.914;6.638;2023-05-03T03:04:05;102014.72;;;10.40;46.10
28344;BME280;15597;50.914;6.638;2023-05-03T03:06:31;102008.56;;;10.36;46.51
28344;BME280;15597;50.914;6.638;2023-05-03T03:08:57;102006.81;;;10.34;45.96
28344;BME280;15597;50.914;6.638;2023-05-03T03:11:23;102006.81;;;10.32;46.22
28344;BME280;15597;50.914;6.638;2023-05-03T03:13:49;102004.19;;;10.28;45.85
28344;BME280;15597;50.914;6.638;2023-05-03T03:16:15;102007.66;;;10.23;45.84
28344;BME280;15597;50.914;6.638;2023-05-03T03:18:40;101998.94;;;10.20;46.77
28344;BME280;15597;50.914;6.638;2023-05-03T03:21:07;101992.81;;;10.18;45.74
28344;BME280;15597;50.914;6.638;2023-05-03T03:23:34;101985.84;;;10.15;45.72
28344;BME280;15597;50.914;6.638;2023-05-03T03:26:00;101984.97;;;10.15;46.54
28344;BME280;15597;50.914;6.638;2023-05-03T03:28:25;101980.59;;;10.14;46.53
28344;BME280;15597;50.914;6.638;2023-05-03T03:30:52;101977.13;;;10.15;46.49
28344;BME280;15597;50.914;6.638;2023-05-03T03:33:23;101980.59;;;10.14;46.66
28344;BME280;15597;50.914;6.638;2023-05-03T03:35:51;101977.97;;;10.14;46.32
28344;BME280;15597;50.914;6.638;2023-05-03T03:38:20;101971.88;;;10.12;47.01
28344;BME280;15597;50.914;6.638;2023-05-03T03:40:53;101968.41;;;10.13;46.00
28344;BME280;15597;50.914;6.638;2023-05-03T03:43:22;101971.03;;;10.11;46.58
28344;BME280;15597;50.914;6.638;2023-05-03T03:45:48;101976.22;;;10.09;46.70
28344;BME280;15597;50.914;6.638;2023-05-03T03:48:15;101968.38;;;10.09;46.78
28344;BME280;15597;50.914;6.638;2023-05-03T03:50:40;101968.38;;;10.09;46.59
28344;BME280;15597;50.914;6.638;2023-05-03T03:53:06;101970.16;;;10.12;46.67
28344;BME280;15597;50.914;6.638;2023-05-03T03:55:34;101965.78;;;10.14;47.16
28344;BME280;15597;50.914;6.638;2023-05-03T03:58:00;101966.66;;;10.15;46.40
28344;BME280;15597;50.914;6.638;2023-05-03T04:00:26;101967.53;;;10.12;46.68
28344;BME280;15597;50.914;6.638;2023-05-03T04:03:03;101961.41;;;10.12;46.85
28344;BME280;15597;50.914;6.638;2023-05-03T04:05:31;101959.66;;;10.11;46.89
28344;BME280;15597;50.914;6.638;2023-05-03T04:07:57;101953.56;;;10.08;46.93
28344;BME280;15597;50.914;6.638;2023-05-03T04:10:25;101953.53;;;9.98;46.94
28344;BME280;15597;50.914;6.638;2023-05-03T04:12:50;101956.13;;;9.93;46.44
28344;BME280;15597;50.914;6.638;2023-05-03T04:15:16;101943.06;;;9.90;47.09
28344;BME280;15597;50.914;6.638;2023-05-03T04:17:44;101947.38;;;9.86;46.42
28344;BME280;15597;50.914;6.638;2023-05-03T04:20:11;101946.53;;;9.83;47.06
28344;BME280;15597;50.914;6.638;2023-05-03T04:22:39;101951.72;;;9.78;47.04
28344;BME280;15597;50.914;6.638;2023-05-03T04:25:12;101959.56;;;9.73;46.67
28344;BME280;15597;50.914;6.638;2023-05-03T04:27:52;101969.09;;;9.67;47.02
28344;BME280;15597;50.914;6.638;2023-05-03T04:30:19;101967.34;;;9.61;47.35
28344;BME280;15597;50.914;6.638;2023-05-03T04:32:50;101973.41;;;9.58;47.08
28344;BME280;15597;50.914;6.638;2023-05-03T04:35:18;101972.53;;;9.55;47.44
28344;BME280;15597;50.914;6.638;2023-05-03T04:37:46;101977.72;;;9.50;47.05
28344;BME280;15597;50.914;6.638;2023-05-03T04:40:14;101987.31;;;9.48;47.41
28344;BME280;15597;50.914;6.638;2023-05-03T04:42:46;101991.66;;;9.46;47.57
28344;BME280;15597;50.914;6.638;2023-05-03T04:45:13;101988.16;;;9.47;47.71
28344;BME280;15597;50.914;6.638;2023-05-03T04:47:39;101998.59;;;9.48;48.05
28344;BME280;15597;50.914;6.638;2023-05-03T04:50:05;101997.78;;;9.51;48.06
28344;BME280;15597;50.914;6.638;2023-05-03T04:52:33;101996.00;;;9.44;47.51
28344;BME280;15597;50.914;6.638;2023-05-03T04:54:59;101997.72;;;9.43;48.27
28344;BME280;15597;50.914;6.638;2023-05-03T04:57:24;102004.69;;;9.47;48.06
28344;BME280;15597;50.914;6.638;2023-05-03T04:59:50;102001.22;;;9.48;47.75
28344;BME280;15597;50.914;6.638;2023-05-03T05:02:18;102003.84;;;9.52;47.75
28344;BME280;15597;50.914;6.638;2023-05-03T05:04:44;102005.59;;;9.53;48.55
28344;BME280;15597;50.914;6.638;2023-05-03T05:07:11;102007.34;;;9.54;48.80
28344;BME280;15597;50.914;6.638;2023-05-03T05:09:37;102005.63;;;9.54;48.74
28344;BME280;15597;50.914;6.638;2023-05-03T05:12:04;102013.50;;;9.56;48.62
28344;BME280;15597;50.914;6.638;2023-05-03T05:14:37;102009.19;;;9.64;49.29
28344;BME280;15597;50.914;6.638;2023-05-03T05:17:04;102015.31;;;9.74;48.98
28344;BME280;15597;50.914;6.638;2023-05-03T05:19:29;102014.47;;;9.84;49.28
28344;BME280;15597;50.914;6.638;2023-05-03T05:21:55;102018.88;;;9.93;48.86
28344;BME280;15597;50.914;6.638;2023-05-03T05:24:25;102024.13;;;10.01;48.96
28344;BME280;15597;50.914;6.638;2023-05-03T05:26:51;102023.34;;;10.11;49.15
28344;BME280;15597;50.914;6.638;2023-05-03T05:29:17;102033.81;;;10.25;48.86
28344;BME280;15597;50.914;6.638;2023-05-03T05:31:42;102029.53;;;10.40;49.20
28344;BME280;15597;50.914;6.638;2023-05-03T05:34:09;102032.19;;;10.58;49.84
28344;BME280;15597;50.914;6.638;2023-05-03T05:36:36;102038.34;;;10.73;49.47
28344;BME280;15597;50.914;6.638;2023-05-03T05:39:02;102041.84;;;10.84;49.19
28344;BME280;15597;50.914;6.638;2023-05-03T05:41:29;102038.34;;;10.94;49.34
28344;BME280;15597;50.914;6.638;2023-05-03T05:43:55;102037.47;;;11.02;48.73
28344;BME280;15597;50.914;6.638;2023-05-03T05:46:21;102033.09;;;11.08;48.72
28344;BME280;15597;50.914;6.638;2023-05-03T05:48:47;102038.34;;;11.13;48.88
28344;BME280;15597;50.914;6.638;2023-05-03T05:51:13;102048.81;;;11.22;48.97
28344;BME280;15597;50.914;6.638;2023-05-03T05:53:39;102045.31;;;11.33;48.92
28344;BME280;15597;50.914;6.638;2023-05-03T05:56:05;102048.78;;;11.44;48.79
28344;BME280;15597;50.914;6.638;2023-05-03T05:58:33;102041.75;;;11.55;49.23
28344;BME280;15597;50.914;6.638;2023-05-03T06:00:59;102047.88;;;11.68;49.06
28344;BME280;15597;50.914;6.638;2023-05-03T06:03:30;102046.97;;;11.76;48.80
28344;BME280;15597;50.914;6.638;2023-05-03T06:05:57;102052.22;;;11.80;48.62
28344;BME280;15597;50.914;6.638;2023-05-03T06:08:23;102051.34;;;11.81;48.79
28344;BME280;15597;50.914;6.638;2023-05-03T06:10:50;102059.19;;;11.83;48.88
28344;BME280;15597;50.914;6.638;2023-05-03T06:13:18;102053.94;;;11.91;48.98
28344;BME280;15597;50.914;6.638;2023-05-03T06:15:45;102059.16;;;11.94;49.28
28344;BME280;15597;50.914;6.638;2023-05-03T06:18:11;102058.25;;;11.96;48.79
28344;BME280;15597;50.914;6.638;2023-05-03T06:20:37;102060.03;;;12.02;48.80
28344;BME280;15597;50.914;6.638;2023-05-03T06:23:03;102062.66;;;12.02;48.61
28344;BME280;15597;50.914;6.638;2023-05-03T06:25:28;102064.41;;;12.03;48.58
28344;BME280;15597;50.914;6.638;2023-05-03T06:27:54;102062.63;;;12.08;48.89
28344;BME280;15597;50.914;6.638;2023-05-03T06:30:23;102062.59;;;12.15;48.81
28344;BME280;15597;50.914;6.638;2023-05-03T06:32:50;102074.88;;;12.12;48.50
28344;BME280;15597;50.914;6.638;2023-05-03T06:35:16;102071.34;;;12.13;48.73
28344;BME280;15597;50.914;6.638;2023-05-03T06:37:44;102060.84;;;12.20;48.76
28344;BME280;15597;50.914;6.638;2023-05-03T06:40:10;102059.03;;;12.28;48.81
28344;BME280;15597;50.914;6.638;2023-05-03T06:42:35;102063.41;;;12.34;48.76
28344;BME280;15597;50.914;6.638;2023-05-03T06:45:08;102059.00;;;12.39;48.75
28344;BME280;15597;50.914;6.638;2023-05-03T06:47:36;102058.97;;;12.44;48.76
28344;BME280;15597;50.914;6.638;2023-05-03T06:50:01;102065.91;;;12.51;48.82
28344;BME280;15597;50.914;6.638;2023-05-03T06:52:27;102055.38;;;12.57;48.84
28344;BME280;15597;50.914;6.638;2023-05-03T06:54:53;102061.44;;;12.65;48.78
28344;BME280;15597;50.914;6.638;2023-05-03T06:57:18;102047.41;;;12.74;48.70
28344;BME280;15597;50.914;6.638;2023-05-03T06:59:44;102053.50;;;12.81;48.73
28344;BME280;15597;50.914;6.638;2023-05-03T07:02:09;102056.94;;;12.89;48.28
28344;BME280;15597;50.914;6.638;2023-05-03T07:04:35;102056.00;;;12.95;48.51
28344;BME280;15597;50.914;6.638;2023-05-03T07:07:03;102053.31;;;13.03;48.55
28344;BME280;15597;50.914;6.638;2023-05-03T07:09:28;102053.25;;;13.09;48.44
28344;BME280;15597;50.914;6.638;2023-05-03T07:11:54;102050.59;;;13.15;48.03
28344;BME280;15597;50.914;6.638;2023-05-03T07:14:19;102050.53;;;13.21;48.46
28344;BME280;15597;50.914;6.638;2023-05-03T07:16:45;102050.47;;;13.27;48.21
28344;BME280;15597;50.914;6.638;2023-05-03T07:19:10;102048.66;;;13.34;49.07
28344;BME280;15597;50.914;6.638;2023-05-03T07:21:36;102052.97;;;13.43;48.54
28344;BME280;15597;50.914;6.638;2023-05-03T07:24:01;102049.41;;;13.50;48.66
28344;BME280;15597;50.914;6.638;2023-05-03T07:26:27;102053.66;;;13.61;48.37
28344;BME280;15597;50.914;6.638;2023-05-03T07:28:53;102047.47;;;13.68;48.13
28344;BME280;15597;50.914;6.638;2023-05-03T07:31:20;102036.88;;;13.74;47.79
28344;BME280;15597;50.914;6.638;2023-05-03T07:33:47;102038.56;;;13.81;47.66
28344;BME280;15597;50.914;6.638;2023-05-03T07:36:13;102041.09;;;13.89;47.83
28344;BME280;15597;50.914;6.638;2023-05-03T07:38:38;102041.91;;;13.96;47.78
28344;BME280;15597;50.914;6.638;2023-05-03T07:41:03;102042.69;;;14.02;47.70
28344;BME280;15597;50.914;6.638;2023-05-03T07:43:29;102032.06;;;14.09;47.49
28344;BME280;15597;50.914;6.638;2023-05-03T07:45:55;102032.88;;;14.15;47.64
28344;BME280;15597;50.914;6.638;2023-05-03T07:48:21;102029.22;;;14.24;47.56
28344;BME280;15597;50.914;6.638;2023-05-03T07:50:47;102023.88;;;14.32;47.56
28344;BME280;15597;50.914;6.638;2023-05-03T07:53:13;102021.13;;;14.38;47.22
28344;BME280;15597;50.914;6.638;2023-05-03T07:55:38;102020.16;;;14.45;47.08
28344;BME280;15597;50.914;6.638;2023-05-03T07:58:04;102019.22;;;14.51;47.35
28344;BME280;15597;50.914;6.638;2023-05-03T08:00:30;102012.06;;;14.58;46.53
28344;BME280;15597;50.914;6.638;2023-05-03T08:02:55;102023.41;;;14.63;46.76
28344;BME280;15597;50.914;6.638;2023-05-03T08:05:21;102013.66;;;14.68;46.84
28344;BME280;15597;50.914;6.638;2023-05-03T08:07:48;102013.59;;;14.76;46.86
28344;BME280;15597;50.914;6.638;2023-05-03T08:10:14;102015.22;;;14.82;46.86
28344;BME280;15597;50.914;6.638;2023-05-03T08:12:40;102007.31;;;14.85;46.70
28344;BME280;15597;50.914;6.638;2023-05-03T08:15:06;102007.22;;;14.89;46.88
28344;BME280;15597;50.914;6.638;2023-05-03T08:17:39;102005.41;;;14.93;46.82
28344;BME280;15597;50.914;6.638;2023-05-03T08:20:07;102004.41;;;14.99;46.51
28344;BME280;15597;50.914;6.638;2023-05-03T08:22:33;102005.19;;;15.06;46.42
28344;BME280;15597;50.914;6.638;2023-05-03T08:25:02;102003.34;;;15.11;46.66
28344;BME280;15597;50.914;6.638;2023-05-03T08:27:32;102005.03;;;15.15;46.18
28344;BME280;15597;50.914;6.638;2023-05-03T08:29:58;102003.13;;;15.23;46.46
28344;BME280;15597;50.914;6.638;2023-05-03T08:32:26;102009.19;;;15.28;46.52
28344;BME280;15597;50.914;6.638;2023-05-03T08:34:53;102004.69;;;15.33;46.35
28344;BME280;15597;50.914;6.638;2023-05-03T08:37:19;102001.94;;;15.40;46.07
28344;BME280;15597;50.914;6.638;2023-05-03T08:39:45;102003.63;;;15.44;45.94
28344;BME280;15597;50.914;6.638;2023-05-03T08:42:11;102001.75;;;15.49;46.00
28344;BME280;15597;50.914;6.638;2023-05-03T08:44:44;102006.06;;;15.53;46.11
28344;BME280;15597;50.914;6.638;2023-05-03T08:47:15;102005.03;;;15.60;46.20
28344;BME280;15597;50.914;6.638;2023-05-03T08:49:44;102002.28;;;15.67;46.02
28344;BME280;15597;50.914;6.638;2023-05-03T08:52:11;101996.88;;;15.73;45.91
28344;BME280;15597;50.914;6.638;2023-05-03T08:54:38;101995.00;;;15.78;45.71
28344;BME280;15597;50.914;6.638;2023-05-03T08:57:09;101992.34;;;15.80;45.12
28344;BME280;15597;50.914;6.638;2023-05-03T08:59:48;101992.31;;;15.81;45.20
28344;BME280;15597;50.914;6.638;2023-05-03T09:02:14;101985.13;;;15.89;44.70
28344;BME280;15597;50.914;6.638;2023-05-03T09:04:40;101984.19;;;15.94;44.46
28344;BME280;15597;50.914;6.638;2023-05-03T09:07:07;101985.84;;;15.98;44.67
28344;BME280;15597;50.914;6.638;2023-05-03T09:09:33;101990.19;;;16.00;44.24
28344;BME280;15597;50.914;6.638;2023-05-03T09:11:58;101987.47;;;16.05;43.79
28344;BME280;15597;50.914;6.638;2023-05-03T09:14:24;101988.31;;;16.05;43.24
28344;BME280;15597;50.914;6.638;2023-05-03T09:16:49;101983.84;;;16.09;44.09
28344;BME280;15597;50.914;6.638;2023-05-03T09:19:15;101978.50;;;16.12;44.30
28344;BME280;15597;50.914;6.638;2023-05-03T09:21:42;101970.44;;;16.17;44.23
28344;BME280;15597;50.914;6.638;2023-05-03T09:24:19;101974.88;;;16.16;43.95
28344;BME280;15597;50.914;6.638;2023-05-03T09:26:49;101970.38;;;16.21;43.98
28344;BME280;15597;50.914;6.638;2023-05-03T09:29:29;101961.59;;;16.19;43.68
28344;BME280;15597;50.914;6.638;2023-05-03T09:32:00;101965.00;;;16.25;43.24
28344;BME280;15597;50.914;6.638;2023-05-03T09:34:26;101960.50;;;16.30;43.04
28344;BME280;15597;50.914;6.638;2023-05-03T09:36:52;101967.44;;;16.34;43.04
28344;BME280;15597;50.914;6.638;2023-05-03T09:39:18;101963.81;;;16.38;43.27
28344;BME280;15597;50.914;6.638;2023-05-03T09:41:44;101961.09;;;16.41;43.19
28344;BME280;15597;50.914;6.638;2023-05-03T09:44:10;101949.56;;;16.45;43.35
28344;BME280;15597;50.914;6.638;2023-05-03T09:46:37;101953.84;;;16.51;44.05
28344;BME280;15597;50.914;6.638;2023-05-03T09:49:02;101965.16;;;16.55;43.98
28344;BME280;15597;50.914;6.638;2023-05-03T09:51:28;101949.16;;;16.61;43.45
28344;BME280;15597;50.914;6.638;2023-05-03T09:53:55;101949.00;;;16.67;43.57
28344;BME280;15597;50.914;6.638;2023-05-03T09:56:21;101948.00;;;16.73;43.29
28344;BME280;15597;50.914;6.638;2023-05-03T09:58:51;101952.25;;;16.78;43.42
28344;BME280;15597;50.914;6.638;2023-05-03T10:01:19;101949.44;;;16.85;43.67
28344;BME280;15597;50.914;6.638;2023-05-03T10:03:48;101943.09;;;16.92;42.97
28344;BME280;15597;50.914;6.638;2023-05-03T10:11:23;101930.50;;;17.03;42.68
28344;BME280;15597;50.914;6.638;2023-05-03T10:13:51;101917.06;;;17.11;42.56
28344;BME280;15597;50.914;6.638;2023-05-03T10:16:22;101913.50;;;17.12;43.15
28344;BME280;15597;50.914;6.638;2023-05-03T10:18:53;101910.66;;;17.20;42.93
28344;BME280;15597;50.914;6.638;2023-05-03T10:21:28;101914.03;;;17.25;43.31
28344;BME280;15597;50.914;6.638;2023-05-03T10:24:23;101921.88;;;17.28;43.67
28344;BME280;15597;50.914;6.638;2023-05-03T10:26:50;101915.31;;;17.42;43.42
28344;BME280;15597;50.914;6.638;2023-05-03T10:32:04;101913.13;;;17.56;43.00
28344;BME280;15597;50.914;6.638;2023-05-03T10:34:58;101912.91;;;17.64;42.68
28344;BME280;15597;50.914;6.638;2023-05-03T10:37:25;101902.91;;;17.74;42.08
28344;BME280;15597;50.914;6.638;2023-05-03T10:39:54;101904.44;;;17.81;42.05
28344;BME280;15597;50.914;6.638;2023-05-03T10:42:23;101904.97;;;17.92;42.56
28344;BME280;15597;50.914;6.638;2023-05-03T10:44:52;101909.69;;;17.83;43.09
28344;BME280;15597;50.914;6.638;2023-05-03T10:47:20;101910.16;;;17.95;43.20
28344;BME280;15597;50.914;6.638;2023-05-03T10:55:20;101894.28;;;18.24;43.29
28344;BME280;15597;50.914;6.638;2023-05-03T10:57:47;101900.88;;;18.39;43.36
28344;BME280;15597;50.914;6.638;2023-05-03T11:00:18;101895.28;;;18.48;42.24
28344;BME280;15597;50.914;6.638;2023-05-03T11:03:06;101899.44;;;18.56;43.04
28344;BME280;15597;50.914;6.638;2023-05-03T11:05:37;101896.25;;;18.71;42.44
28344;BME280;15597;50.914;6.638;2023-05-03T11:08:17;101899.59;;;18.76;42.98
28344;BME280;15597;50.914;6.638;2023-05-03T11:10:44;101890.25;;;18.91;41.66
28344;BME280;15597;50.914;6.638;2023-05-03T11:13:10;101885.50;;;19.01;42.08
28344;BME280;15597;50.914;6.638;2023-05-03T11:15:36;101876.31;;;19.11;42.02
28344;BME280;15597;50.914;6.638;2023-05-03T11:18:05;101884.78;;;19.21;41.34
28344;BME280;15597;50.914;6.638;2023-05-03T11:20:31;101884.38;;;19.32;41.89
28344;BME280;15597;50.914;6.638;2023-05-03T11:22:57;101882.31;;;19.40;41.68
28344;BME280;15597;50.914;6.638;2023-05-03T11:25:23;101877.50;;;19.50;40.60
28344;BME280;15597;50.914;6.638;2023-05-03T11:27:49;101869.00;;;19.64;40.87
28344;BME280;15597;50.914;6.638;2023-05-03T11:30:14;101869.50;;;19.74;39.84
28344;BME280;15597;50.914;6.638;2023-05-03T11:32:41;101868.25;;;19.83;40.01
28344;BME280;15597;50.914;6.638;2023-05-03T11:35:07;101872.19;;;19.96;39.42
28344;BME280;15597;50.914;6.638;2023-05-03T11:37:34;101864.63;;;20.08;40.57
28344;BME280;15597;50.914;6.638;2023-05-03T11:39:59;101869.50;;;20.19;40.14
28344;BME280;15597;50.914;6.638;2023-05-03T11:42:25;101857.53;;;20.31;40.07
28344;BME280;15597;50.914;6.638;2023-05-03T11:44:55;101851.69;;;20.43;40.23
28344;BME280;15597;50.914;6.638;2023-05-03T11:47:21;101860.97;;;20.53;40.60
28344;BME280;15597;50.914;6.638;2023-05-03T11:49:55;101846.66;;;20.56;38.69
28344;BME280;15597;50.914;6.638;2023-05-03T11:52:25;101851.53;;;20.67;39.31
28344;BME280;15597;50.914;6.638;2023-05-03T11:54:52;101849.22;;;20.80;38.43
28344;BME280;15597;50.914;6.638;2023-05-03T11:57:18;101846.22;;;20.87;38.46
28344;BME280;15597;50.914;6.638;2023-05-03T11:59:44;101847.53;;;20.98;39.25
28344;BME280;15597;50.914;6.638;2023-05-03T12:02:12;101842.00;;;21.02;39.84
28344;BME280;15597;50.914;6.638;2023-05-03T12:04:39;101831.00;;;21.10;38.90
28344;BME280;15597;50.914;6.638;2023-05-03T12:07:06;101836.03;;;21.16;39.15
28344;BME280;15597;50.914;6.638;2023-05-03T12:09:33;101831.88;;;21.30;39.56
28344;BME280;15597;50.914;6.638;2023-05-03T12:11:59;101829.44;;;21.44;38.01
28344;BME280;15597;50.914;6.638;2023-05-03T12:14:25;101832.88;;;21.66;37.29
28344;BME280;15597;50.914;6.638;2023-05-03T12:16:51;101828.59;;;21.81;37.42
28344;BME280;15597;50.914;6.638;2023-05-03T12:19:28;101827.28;;;21.89;37.33
28344;BME280;15597;50.914;6.638;2023-05-03T12:21:54;101820.25;;;22.06;36.51
28344;BME280;15597;50.914;6.638;2023-05-03T12:24:20;101822.19;;;22.20;37.28
28344;BME280;15597;50.914;6.638;2023-05-03T12:26:48;101820.97;;;22.27;37.17
28344;BME280;15597;50.914;6.638;2023-05-03T12:29:14;101814.91;;;22.41;36.57
28344;BME280;15597;50.914;6.638;2023-05-03T12:31:41;101812.97;;;22.45;35.33
28344;BME280;15597;50.914;6.638;2023-05-03T12:34:07;101809.56;;;22.59;35.43
28344;BME280;15597;50.914;6.638;2023-05-03T12:36:33;101806.34;;;22.70;34.94
28344;BME280;15597;50.914;6.638;2023-05-03T12:38:59;101802.47;;;22.75;35.18
28344;BME280;15597;50.914;6.638;2023-05-03T12:41:25;101799.06;;;22.89;34.59
28344;BME280;15597;50.914;6.638;2023-05-03T12:43:54;101795.81;;;23.00;33.55
28344;BME280;15597;50.914;6.638;2023-05-03T12:46:21;101793.41;;;23.12;34.26
28344;BME280;15597;50.914;6.638;2023-05-03T12:48:48;101789.69;;;23.14;34.04
28344;BME280;15597;50.914;6.638;2023-05-03T12:51:14;101789.63;;;23.16;34.78
28344;BME280;15597;50.914;6.638;2023-05-03T12:53:40;101788.25;;;23.25;35.37
28344;BME280;15597;50.914;6.638;2023-05-03T12:56:06;101781.81;;;23.29;34.54
28344;BME280;15597;50.914;6.638;2023-05-03T12:58:32;101769.69;;;23.39;34.24
28344;BME280;15597;50.914;6.638;2023-05-03T13:00:58;101768.88;;;23.53;34.94
28344;BME280;15597;50.914;6.638;2023-05-03T13:03:24;101760.81;;;23.69;34.70
28344;BME280;15597;50.914;6.638;2023-05-03T13:05:50;101756.28;;;23.86;33.45
28344;BME280;15597;50.914;6.638;2023-05-03T13:08:15;101760.75;;;24.01;33.69